sensor_id;sensor_type;location;lat;lon;timestamp;P1;durP1;ratioP1;P2;durP2;ratioP2
78840;SDS011;68379;47.190;27.558;2023-04-01T00:01:03;9.20;;;6.40;;
78840;SDS011;68379;47.190;27.558;2023-04-01T00:03:36;8.60;;;5.10;;
78840;SDS011;68379;47.190;27.558;2023-04-01T00:06:08;8.80;;;5.60;;
78840;SDS011;68379;47.190;27.558;2023-04-01T00:08:42;8.70;;;5.90;;
78840;SDS011;68379;47.190;27.558;2023-04-01T00:11:14;10.70;;;5.90;;
78840;SDS011;68379;47.190;27.558;2023-04-01T00:13:47;9.10;;;5.50;;
78840;SDS011;68379;47.190;27.558;2023-04-01T00:16:19;9.30;;;6.40;;
78840;SDS011;68379;47.190;27.558;2023-04-01T00:18:50;13.50;;;6.80;;
78840;SDS011;68379;47.190;27.558;2023-04-01T00:21:22;10.20;;;7.00;;
78840;SDS011;68379;47.190;27.558;2023-04-01T00:23:54;10.20;;;6.40;;
78840;SDS011;68379;47.190;27.558;2023-04-01T00:26:27;10.40;;;6.70;;
78840;SDS011;68379;47.190;27.558;2023-04-01T00:28:59;13.60;;;8.90;;
78840;SDS011;68379;47.190;27.558;2023-04-01T00:31:31;19.10;;;10.00;;
78840;SDS011;68379;47.190;27.558;2023-04-01T00:34:03;17.00;;;9.90;;
78840;SDS011;68379;47.190;27.558;2023-04-01T00:36:35;13.90;;;9.40;;
78840;SDS011;68379;47.190;27.558;2023-04-01T00:39:08;15.60;;;9.50;;
78840;SDS011;68379;47.190;27.558;2023-04-01T00:41:40;11.50;;;7.90;;
78840;SDS011;68379;47.190;27.558;2023-04-01T00:44:20;15.10;;;9.30;;
78840;SDS011;68379;47.190;27.558;2023-04-01T00:46:54;13.60;;;9.50;;
78840;SDS011;68379;47.190;27.558;2023-04-01T00:49:27;14.40;;;10.00;;
78840;SDS011;68379;47.190;27.558;2023-04-01T00:52:03;17.00;;;10.70;;
78840;SDS011;68379;47.190;27.558;2023-04-01T00:54:37;19.20;;;10.40;;
78840;SDS011;68379;47.190;27.558;2023-04-01T00:57:11;20.00;;;11.30;;
78840;SDS011;68379;47.190;27.558;2023-04-01T00:59:47;17.00;;;10.30;;
78840;SDS011;68379;47.190;27.558;2023-04-01T01:02:22;15.10;;;9.30;;
78840;SDS011;68379;47.190;27.558;2023-04-01T01:04:54;10.70;;;7.80;;
78840;SDS011;68379;47.190;27.558;2023-04-01T01:07:27;11.80;;;7.40;;
78840;SDS011;68379;47.190;27.558;2023-04-01T01:10:09;12.40;;;8.20;;
78840;SDS011;68379;47.190;27.558;2023-04-01T01:12:48;14.10;;;8.80;;
78840;SDS011;68379;47.190;27.558;2023-04-01T01:15:32;15.90;;;8.60;;
78840;SDS011;68379;47.190;27.558;2023-04-01T01:18:16;14.90;;;9.20;;
78840;SDS011;68379;47.190;27.558;2023-04-01T01:24:19;15.80;;;9.20;;
78840;SDS011;68379;47.190;27.558;2023-04-01T01:27:05;13.90;;;8.60;;
78840;SDS011;68379;47.190;27.558;2023-04-01T01:32:54;11.40;;;7.80;;
78840;SDS011;68379;47.190;27.558;2023-04-01T01:35:36;11.60;;;8.00;;
78840;SDS011;68379;47.190;27.558;2023-04-01T01:38:14;12.70;;;7.90;;
78840;SDS011;68379;47.190;27.558;2023-04-01T01:40:50;11.70;;;8.30;;
78840;SDS011;68379;47.190;27.558;2023-04-01T01:43:25;11.90;;;8.20;;
78840;SDS011;68379;47.190;27.558;2023-04-01T01:46:00;13.80;;;9.50;;
78840;SDS011;68379;47.190;27.558;2023-04-01T01:48:37;12.30;;;9.00;;
78840;SDS011;68379;47.190;27.558;2023-04-01T01:51:11;14.60;;;8.40;;
78840;SDS011;68379;47.190;27.558;2023-04-01T01:53:43;13.50;;;8.00;;
78840;SDS011;68379;47.190;27.558;2023-04-01T01:56:14;12.70;;;8.90;;
78840;SDS011;68379;47.190;27.558;2023-04-01T01:58:50;10.20;;;7.40;;
78840;SDS011;68379;47.190;27.558;2023-04-01T02:01:26;11.20;;;7.50;;
78840;SDS011;68379;47.190;27.558;2023-04-01T02:04:01;11.70;;;8.00;;
78840;SDS011;68379;47.190;27.558;2023-04-01T02:06:34;10.90;;;7.70;;
78840;SDS011;68379;47.190;27.558;2023-04-01T02:09:12;12.90;;;9.00;;
78840;SDS011;68379;47.190;27.558;2023-04-01T02:11:45;17.00;;;10.20;;
78840;SDS011;68379;47.190;27.558;2023-04-01T02:14:21;14.80;;;9.40;;
78840;SDS011;68379;47.190;27.558;2023-04-01T02:16:56;15.10;;;8.90;;
78840;SDS011;68379;47.190;27.558;2023-04-01T02:19:35;13.90;;;8.20;;
78840;SDS011;68379;47.190;27.558;2023-04-01T02:22:10;9.20;;;6.40;;
78840;SDS011;68379;47.190;27.558;2023-04-01T02:24:46;11.20;;;7.80;;
78840;SDS011;68379;47.190;27.558;2023-04-01T02:29:50;10.70;;;6.80;;
78840;SDS011;68379;47.190;27.558;2023-04-01T02:32:23;13.20;;;7.90;;
78840;SDS011;68379;47.190;27.558;2023-04-01T02:34:57;16.30;;;9.60;;
78840;SDS011;68379;47.190;27.558;2023-04-01T02:37:34;14.80;;;9.60;;
78840;SDS011;68379;47.190;27.558;2023-04-01T02:40:07;13.90;;;9.10;;
78840;SDS011;68379;47.190;27.558;2023-04-01T02:42:41;13.80;;;8.40;;
78840;SDS011;68379;47.190;27.558;2023-04-01T02:45:13;15.20;;;8.40;;
78840;SDS011;68379;47.190;27.558;2023-04-01T02:47:46;9.80;;;7.20;;
78840;SDS011;68379;47.190;27.558;2023-04-01T02:50:18;11.10;;;7.80;;
78840;SDS011;68379;47.190;27.558;2023-04-01T02:52:49;12.70;;;7.70;;
78840;SDS011;68379;47.190;27.558;2023-04-01T02:55:22;13.00;;;8.20;;
78840;SDS011;68379;47.190;27.558;2023-04-01T02:57:53;11.50;;;7.70;;
78840;SDS011;68379;47.190;27.558;2023-04-01T03:00:25;14.30;;;8.40;;
78840;SDS011;68379;47.190;27.558;2023-04-01T03:02:57;19.10;;;10.70;;
78840;SDS011;68379;47.190;27.558;2023-04-01T03:05:30;17.40;;;9.80;;
78840;SDS011;68379;47.190;27.558;2023-04-01T03:08:03;15.70;;;8.90;;
78840;SDS011;68379;47.190;27.558;2023-04-01T03:10:36;12.60;;;8.60;;
78840;SDS011;68379;47.190;27.558;2023-04-01T03:13:08;16.60;;;10.30;;
78840;SDS011;68379;47.190;27.558;2023-04-01T03:15:40;13.40;;;9.00;;
78840;SDS011;68379;47.190;27.558;2023-04-01T03:18:12;13.60;;;8.90;;
78840;SDS011;68379;47.190;27.558;2023-04-01T03:20:44;13.10;;;9.10;;
78840;SDS011;68379;47.190;27.558;2023-04-01T03:23:15;12.10;;;8.70;;
78840;SDS011;68379;47.190;27.558;2023-04-01T03:25:49;16.30;;;9.90;;
78840;SDS011;68379;47.190;27.558;2023-04-01T03:28:21;19.90;;;12.20;;
78840;SDS011;68379;47.190;27.558;2023-04-01T03:30:53;17.20;;;10.20;;
78840;SDS011;68379;47.190;27.558;2023-04-01T03:33:25;21.30;;;13.00;;
78840;SDS011;68379;47.190;27.558;2023-04-01T03:35:57;19.00;;;12.10;;
78840;SDS011;68379;47.190;27.558;2023-04-01T03:38:29;17.10;;;10.70;;
78840;SDS011;68379;47.190;27.558;2023-04-01T03:41:01;15.70;;;9.40;;
78840;SDS011;68379;47.190;27.558;2023-04-01T03:43:33;13.50;;;7.60;;
78840;SDS011;68379;47.190;27.558;2023-04-01T03:46:05;16.20;;;9.70;;
78840;SDS011;68379;47.190;27.558;2023-04-01T03:48:37;15.60;;;10.20;;
78840;SDS011;68379;47.190;27.558;2023-04-01T03:51:09;22.00;;;11.40;;
78840;SDS011;68379;47.190;27.558;2023-04-01T03:53:41;24.70;;;13.60;;
78840;SDS011;68379;47.190;27.558;2023-04-01T03:56:13;19.80;;;12.00;;
78840;SDS011;68379;47.190;27.558;2023-04-01T03:58:45;17.50;;;9.80;;
78840;SDS011;68379;47.190;27.558;2023-04-01T04:01:18;21.30;;;11.30;;
78840;SDS011;68379;47.190;27.558;2023-04-01T04:03:51;17.80;;;11.70;;
78840;SDS011;68379;47.190;27.558;2023-04-01T04:06:24;17.90;;;11.70;;
78840;SDS011;68379;47.190;27.558;2023-04-01T04:08:56;17.60;;;11.00;;
78840;SDS011;68379;47.190;27.558;2023-04-01T04:11:28;13.90;;;9.00;;
78840;SDS011;68379;47.190;27.558;2023-04-01T04:16:32;15.10;;;9.80;;
78840;SDS011;68379;47.190;27.558;2023-04-01T04:19:06;17.60;;;10.80;;
78840;SDS011;68379;47.190;27.558;2023-04-01T04:21:38;17.80;;;11.80;;
78840;SDS011;68379;47.190;27.558;2023-04-01T04:24:11;20.40;;;12.00;;
78840;SDS011;68379;47.190;27.558;2023-04-01T04:26:43;18.80;;;11.40;;
78840;SDS011;68379;47.190;27.558;2023-04-01T04:29:15;19.30;;;12.40;;
78840;SDS011;68379;47.190;27.558;2023-04-01T04:31:46;17.80;;;11.70;;
78840;SDS011;68379;47.190;27.558;2023-04-01T04:34:18;14.50;;;8.60;;
78840;SDS011;68379;47.190;27.558;2023-04-01T04:36:50;14.50;;;10.80;;
78840;SDS011;68379;47.190;27.558;2023-04-01T04:39:23;17.40;;;11.70;;
78840;SDS011;68379;47.190;27.558;2023-04-01T04:41:55;17.90;;;10.20;;
78840;SDS011;68379;47.190;27.558;2023-04-01T04:44:27;18.90;;;12.50;;
78840;SDS011;68379;47.190;27.558;2023-04-01T04:46:59;15.70;;;10.20;;
78840;SDS011;68379;47.190;27.558;2023-04-01T04:49:31;13.80;;;8.80;;
78840;SDS011;68379;47.190;27.558;2023-04-01T04:52:03;15.00;;;9.60;;
78840;SDS011;68379;47.190;27.558;2023-04-01T04:54:36;13.40;;;9.30;;
78840;SDS011;68379;47.190;27.558;2023-04-01T04:57:08;17.60;;;9.90;;
78840;SDS011;68379;47.190;27.558;2023-04-01T04:59:40;16.70;;;11.30;;
78840;SDS011;68379;47.190;27.558;2023-04-01T05:02:12;17.40;;;10.20;;
78840;SDS011;68379;47.190;27.558;2023-04-01T05:04:44;17.10;;;9.30;;
78840;SDS011;68379;47.190;27.558;2023-04-01T05:07:16;12.70;;;9.00;;
78840;SDS011;68379;47.190;27.558;2023-04-01T05:09:47;15.70;;;10.10;;
78840;SDS011;68379;47.190;27.558;2023-04-01T05:12:19;14.50;;;9.80;;
78840;SDS011;68379;47.190;27.558;2023-04-01T05:14:51;18.60;;;10.60;;
78840;SDS011;68379;47.190;27.558;2023-04-01T05:17:23;16.90;;;10.50;;
78840;SDS011;68379;47.190;27.558;2023-04-01T05:19:55;14.40;;;10.00;;
78840;SDS011;68379;47.190;27.558;2023-04-01T05:22:26;13.70;;;9.90;;
78840;SDS011;68379;47.190;27.558;2023-04-01T05:24:58;14.00;;;8.80;;
78840;SDS011;68379;47.190;27.558;2023-04-01T05:27:30;14.60;;;9.00;;
78840;SDS011;68379;47.190;27.558;2023-04-01T05:30:02;12.60;;;8.20;;
78840;SDS011;68379;47.190;27.558;2023-04-01T05:32:35;15.60;;;10.30;;
78840;SDS011;68379;47.190;27.558;2023-04-01T05:35:08;14.60;;;10.20;;
78840;SDS011;68379;47.190;27.558;2023-04-01T05:37:40;15.50;;;8.90;;
78840;SDS011;68379;47.190;27.558;2023-04-01T05:40:12;18.20;;;9.70;;
78840;SDS011;68379;47.190;27.558;2023-04-01T05:42:44;14.80;;;9.20;;
78840;SDS011;68379;47.190;27.558;2023-04-01T05:45:16;13.90;;;8.90;;
78840;SDS011;68379;47.190;27.558;2023-04-01T05:47:48;13.40;;;9.20;;
78840;SDS011;68379;47.190;27.558;2023-04-01T05:50:20;15.60;;;9.30;;
78840;SDS011;68379;47.190;27.558;2023-04-01T05:52:52;12.90;;;9.20;;
78840;SDS011;68379;47.190;27.558;2023-04-01T05:55:24;14.70;;;10.80;;
78840;SDS011;68379;47.190;27.558;2023-04-01T05:57:56;12.70;;;8.20;;
78840;SDS011;68379;47.190;27.558;2023-04-01T06:00:28;13.90;;;9.10;;
78840;SDS011;68379;47.190;27.558;2023-04-01T06:03:00;15.40;;;9.00;;
78840;SDS011;68379;47.190;27.558;2023-04-01T06:05:35;14.50;;;9.20;;
78840;SDS011;68379;47.190;27.558;2023-04-01T06:08:12;14.10;;;8.90;;
78840;SDS011;68379;47.190;27.558;2023-04-01T06:10:51;14.20;;;10.20;;
78840;SDS011;68379;47.190;27.558;2023-04-01T06:13:35;14.70;;;10.50;;
78840;SDS011;68379;47.190;27.558;2023-04-01T06:16:21;13.20;;;9.60;;
78840;SDS011;68379;47.190;27.558;2023-04-01T06:19:07;14.90;;;10.30;;
78840;SDS011;68379;47.190;27.558;2023-04-01T06:22:01;12.70;;;9.20;;
78840;SDS011;68379;47.190;27.558;2023-04-01T06:24:48;12.60;;;8.40;;
78840;SDS011;68379;47.190;27.558;2023-04-01T06:27:40;10.00;;;7.40;;
78840;SDS011;68379;47.190;27.558;2023-04-01T06:30:35;12.20;;;8.90;;
78840;SDS011;68379;47.190;27.558;2023-04-01T06:33:23;13.10;;;7.40;;
78840;SDS011;68379;47.190;27.558;2023-04-01T06:45:16;12.10;;;8.00;;
78840;SDS011;68379;47.190;27.558;2023-04-01T06:48:01;13.80;;;7.80;;
78840;SDS011;68379;47.190;27.558;2023-04-01T06:51:00;12.10;;;8.00;;
78840;SDS011;68379;47.190;27.558;2023-04-01T06:53:41;13.60;;;8.50;;
78840;SDS011;68379;47.190;27.558;2023-04-01T06:56:23;13.50;;;8.10;;
78840;SDS011;68379;47.190;27.558;2023-04-01T06:58:58;17.10;;;8.40;;
78840;SDS011;68379;47.190;27.558;2023-04-01T07:01:34;13.30;;;9.20;;
78840;SDS011;68379;47.190;27.558;2023-04-01T07:04:11;11.70;;;8.40;;
78840;SDS011;68379;47.190;27.558;2023-04-01T07:06:50;11.80;;;8.10;;
78840;SDS011;68379;47.190;27.558;2023-04-01T07:09:25;12.30;;;8.20;;
78840;SDS011;68379;47.190;27.558;2023-04-01T07:12:02;12.00;;;8.30;;
78840;SDS011;68379;47.190;27.558;2023-04-01T07:14:42;13.10;;;8.70;;
78840;SDS011;68379;47.190;27.558;2023-04-01T07:17:19;14.40;;;9.00;;
78840;SDS011;68379;47.190;27.558;2023-04-01T07:19:56;12.60;;;8.40;;
78840;SDS011;68379;47.190;27.558;2023-04-01T07:22:32;18.60;;;11.40;;
78840;SDS011;68379;47.190;27.558;2023-04-01T07:25:11;14.40;;;9.80;;
78840;SDS011;68379;47.190;27.558;2023-04-01T07:27:45;16.10;;;9.20;;
78840;SDS011;68379;47.190;27.558;2023-04-01T07:30:20;15.60;;;9.80;;
78840;SDS011;68379;47.190;27.558;2023-04-01T07:32:54;15.20;;;9.90;;
78840;SDS011;68379;47.190;27.558;2023-04-01T07:35:35;14.90;;;10.40;;
78840;SDS011;68379;47.190;27.558;2023-04-01T07:38:17;13.10;;;8.60;;
78840;SDS011;68379;47.190;27.558;2023-04-01T07:40:59;14.80;;;9.80;;
78840;SDS011;68379;47.190;27.558;2023-04-01T07:43:44;12.30;;;9.10;;
78840;SDS011;68379;47.190;27.558;2023-04-01T07:46:38;14.90;;;8.90;;
78840;SDS011;68379;47.190;27.558;2023-04-01T07:49:30;13.40;;;8.30;;
78840;SDS011;68379;47.190;27.558;2023-04-01T07:52:15;12.20;;;7.30;;
78840;SDS011;68379;47.190;27.558;2023-04-01T07:54:56;10.40;;;7.50;;
78840;SDS011;68379;47.190;27.558;2023-04-01T07:57:35;10.60;;;7.50;;
78840;SDS011;68379;47.190;27.558;2023-04-01T08:02:52;10.40;;;7.10;;
78840;SDS011;68379;47.190;27.558;2023-04-01T08:05:36;13.40;;;7.80;;
78840;SDS011;68379;47.190;27.558;2023-04-01T08:08:21;12.20;;;8.30;;
78840;SDS011;68379;47.190;27.558;2023-04-01T08:11:04;12.20;;;7.70;;
78840;SDS011;68379;47.190;27.558;2023-04-01T08:13:44;11.00;;;6.60;;
78840;SDS011;68379;47.190;27.558;2023-04-01T08:16:23;13.80;;;7.90;;
78840;SDS011;68379;47.190;27.558;2023-04-01T08:19:06;13.90;;;9.00;;
78840;SDS011;68379;47.190;27.558;2023-04-01T08:21:51;13.70;;;8.40;;
78840;SDS011;68379;47.190;27.558;2023-04-01T08:24:29;13.20;;;9.50;;
78840;SDS011;68379;47.190;27.558;2023-04-01T08:27:11;16.30;;;9.60;;
78840;SDS011;68379;47.190;27.558;2023-04-01T08:29:52;13.90;;;9.90;;
78840;SDS011;68379;47.190;27.558;2023-04-01T08:32:30;17.00;;;10.30;;
78840;SDS011;68379;47.190;27.558;2023-04-01T08:35:14;14.40;;;8.50;;
78840;SDS011;68379;47.190;27.558;2023-04-01T08:37:55;13.40;;;8.40;;
78840;SDS011;68379;47.190;27.558;2023-04-01T08:40:47;14.30;;;7.80;;
78840;SDS011;68379;47.190;27.558;2023-04-01T08:43:38;14.60;;;8.40;;
78840;SDS011;68379;47.190;27.558;2023-04-01T08:46:35;15.00;;;9.40;;
78840;SDS011;68379;47.190;27.558;2023-04-01T08:49:40;14.90;;;9.50;;
78840;SDS011;68379;47.190;27.558;2023-04-01T08:52:32;15.30;;;11.50;;
78840;SDS011;68379;47.190;27.558;2023-04-01T08:55:15;16.60;;;9.80;;
78840;SDS011;68379;47.190;27.558;2023-04-01T08:58:01;15.80;;;9.40;;
78840;SDS011;68379;47.190;27.558;2023-04-01T09:00:53;17.20;;;10.20;;
78840;SDS011;68379;47.190;27.558;2023-04-01T09:06:50;16.40;;;11.20;;
78840;SDS011;68379;47.190;27.558;2023-04-01T09:12:57;16.90;;;10.50;;
78840;SDS011;68379;47.190;27.558;2023-04-01T09:16:03;12.40;;;8.90;;
78840;SDS011;68379;47.190;27.558;2023-04-01T09:18:53;16.60;;;8.90;;
78840;SDS011;68379;47.190;27.558;2023-04-01T09:25:12;13.90;;;8.70;;
78840;SDS011;68379;47.190;27.558;2023-04-01T09:28:01;11.60;;;8.20;;
78840;SDS011;68379;47.190;27.558;2023-04-01T09:33:58;12.30;;;8.90;;
78840;SDS011;68379;47.190;27.558;2023-04-01T09:36:46;12.50;;;9.00;;
78840;SDS011;68379;47.190;27.558;2023-04-01T09:39:33;15.10;;;9.10;;
78840;SDS011;68379;47.190;27.558;2023-04-01T09:42:29;13.50;;;8.70;;
78840;SDS011;68379;47.190;27.558;2023-04-01T09:48:18;14.20;;;9.20;;
78840;SDS011;68379;47.190;27.558;2023-04-01T09:51:05;14.90;;;9.40;;
78840;SDS011;68379;47.190;27.558;2023-04-01T09:53:52;15.10;;;8.90;;
78840;SDS011;68379;47.190;27.558;2023-04-01T10:06:06;14.20;;;10.60;;
78840;SDS011;68379;47.190;27.558;2023-04-01T10:09:12;15.40;;;10.60;;
78840;SDS011;68379;47.190;27.558;2023-04-01T10:12:22;14.00;;;10.40;;
78840;SDS011;68379;47.190;27.558;2023-04-01T10:15:29;14.80;;;9.70;;
78840;SDS011;68379;47.190;27.558;2023-04-01T10:18:34;14.40;;;10.20;;
78840;SDS011;68379;47.190;27.558;2023-04-01T10:21:39;11.90;;;9.20;;
78840;SDS011;68379;47.190;27.558;2023-04-01T10:27:58;14.80;;;8.40;;
78840;SDS011;68379;47.190;27.558;2023-04-01T10:30:53;12.20;;;8.70;;
78840;SDS011;68379;47.190;27.558;2023-04-01T10:34:00;12.20;;;8.80;;
78840;SDS011;68379;47.190;27.558;2023-04-01T10:36:55;14.10;;;9.80;;
78840;SDS011;68379;47.190;27.558;2023-04-01T10:39:33;11.50;;;8.30;;
78840;SDS011;68379;47.190;27.558;2023-04-01T10:42:14;12.50;;;9.20;;
78840;SDS011;68379;47.190;27.558;2023-04-01T10:45:15;12.80;;;9.30;;
78840;SDS011;68379;47.190;27.558;2023-04-01T10:48:14;12.50;;;8.70;;
78840;SDS011;68379;47.190;27.558;2023-04-01T10:56:49;13.40;;;9.20;;
78840;SDS011;68379;47.190;27.558;2023-04-01T11:22:03;12.60;;;7.70;;
78840;SDS011;68379;47.190;27.558;2023-04-01T11:28:11;10.80;;;8.30;;
78840;SDS011;68379;47.190;27.558;2023-04-01T11:31:09;13.70;;;8.30;;
78840;SDS011;68379;47.190;27.558;2023-04-01T11:33:53;11.10;;;7.90;;
78840;SDS011;68379;47.190;27.558;2023-04-01T11:36:36;12.70;;;8.20;;
78840;SDS011;68379;47.190;27.558;2023-04-01T11:39:20;11.00;;;8.10;;
78840;SDS011;68379;47.190;27.558;2023-04-01T11:42:03;10.10;;;8.00;;
78840;SDS011;68379;47.190;27.558;2023-04-01T11:44:51;11.40;;;7.70;;
78840;SDS011;68379;47.190;27.558;2023-04-01T11:47:43;8.80;;;7.40;;
78840;SDS011;68379;47.190;27.558;2023-04-01T11:53:08;10.60;;;8.00;;
78840;SDS011;68379;47.190;27.558;2023-04-01T11:55:50;11.50;;;8.90;;
78840;SDS011;68379;47.190;27.558;2023-04-01T11:58:44;11.20;;;7.70;;
78840;SDS011;68379;47.190;27.558;2023-04-01T12:07:31;13.00;;;8.50;;
78840;SDS011;68379;47.190;27.558;2023-04-01T12:10:17;13.60;;;8.60;;
78840;SDS011;68379;47.190;27.558;2023-04-01T12:12:54;9.90;;;7.40;;
78840;SDS011;68379;47.190;27.558;2023-04-01T12:15:48;11.00;;;7.60;;
78840;SDS011;68379;47.190;27.558;2023-04-01T12:18:38;10.40;;;7.70;;
78840;SDS011;68379;47.190;27.558;2023-04-01T12:21:21;10.30;;;8.10;;
78840;SDS011;68379;47.190;27.558;2023-04-01T12:24:05;12.60;;;8.00;;
78840;SDS011;68379;47.190;27.558;2023-04-01T12:29:40;10.60;;;7.90;;
78840;SDS011;68379;47.190;27.558;2023-04-01T12:32:27;12.30;;;8.40;;
78840;SDS011;68379;47.190;27.558;2023-04-01T12:35:19;10.10;;;7.90;;
78840;SDS011;68379;47.190;27.558;2023-04-01T12:37:59;11.90;;;8.00;;
78840;SDS011;68379;47.190;27.558;2023-04-01T12:40:57;14.20;;;8.40;;
78840;SDS011;68379;47.190;27.558;2023-04-01T12:44:03;11.90;;;8.00;;
78840;SDS011;68379;47.190;27.558;2023-04-01T12:53:26;12.50;;;8.20;;
78840;SDS011;68379;47.190;27.558;2023-04-01T12:56:12;11.50;;;8.50;;
78840;SDS011;68379;47.190;27.558;2023-04-01T12:58:59;11.80;;;8.60;;
78840;SDS011;68379;47.190;27.558;2023-04-01T13:01:55;11.40;;;7.90;;
78840;SDS011;68379;47.190;27.558;2023-04-01T13:07:36;10.80;;;8.10;;
78840;SDS011;68379;47.190;27.558;2023-04-01T13:10:29;11.50;;;8.30;;
78840;SDS011;68379;47.190;27.558;2023-04-01T13:13:18;9.60;;;7.60;;
78840;SDS011;68379;47.190;27.558;2023-04-01T13:16:05;13.30;;;8.10;;
78840;SDS011;68379;47.190;27.558;2023-04-01T13:18:44;9.70;;;7.70;;
78840;SDS011;68379;47.190;27.558;2023-04-01T13:21:33;11.40;;;8.40;;
78840;SDS011;68379;47.190;27.558;2023-04-01T13:24:21;11.30;;;8.30;;
78840;SDS011;68379;47.190;27.558;2023-04-01T13:27:02;11.20;;;7.90;;
78840;SDS011;68379;47.190;27.558;2023-04-01T13:29:40;9.90;;;7.60;;
78840;SDS011;68379;47.190;27.558;2023-04-01T13:32:18;11.90;;;8.40;;
78840;SDS011;68379;47.190;27.558;2023-04-01T13:35:03;12.10;;;8.30;;
78840;SDS011;68379;47.190;27.558;2023-04-01T13:37:49;11.20;;;8.10;;
78840;SDS011;68379;47.190;27.558;2023-04-01T13:40:34;11.50;;;7.50;;
78840;SDS011;68379;47.190;27.558;2023-04-01T13:43:14;10.40;;;7.50;;
78840;SDS011;68379;47.190;27.558;2023-04-01T13:46:12;11.20;;;8.40;;
78840;SDS011;68379;47.190;27.558;2023-04-01T13:52:10;11.10;;;7.90;;
78840;SDS011;68379;47.190;27.558;2023-04-01T13:57:56;10.00;;;7.70;;
78840;SDS011;68379;47.190;27.558;2023-04-01T14:00:56;9.70;;;7.50;;
78840;SDS011;68379;47.190;27.558;2023-04-01T14:03:45;10.00;;;8.30;;
78840;SDS011;68379;47.190;27.558;2023-04-01T14:06:36;10.90;;;7.90;;
78840;SDS011;68379;47.190;27.558;2023-04-01T14:09:32;9.30;;;7.30;;
78840;SDS011;68379;47.190;27.558;2023-04-01T14:12:31;11.50;;;7.60;;
78840;SDS011;68379;47.190;27.558;2023-04-01T14:15:23;9.50;;;7.60;;
78840;SDS011;68379;47.190;27.558;2023-04-01T14:18:30;10.80;;;7.70;;
78840;SDS011;68379;47.190;27.558;2023-04-01T14:21:16;10.90;;;7.50;;
78840;SDS011;68379;47.190;27.558;2023-04-01T14:24:00;10.00;;;7.50;;
78840;SDS011;68379;47.190;27.558;2023-04-01T14:30:00;9.70;;;7.70;;
78840;SDS011;68379;47.190;27.558;2023-04-01T14:33:00;11.30;;;7.80;;
78840;SDS011;68379;47.190;27.558;2023-04-01T14:35:45;10.60;;;7.80;;
78840;SDS011;68379;47.190;27.558;2023-04-01T14:41:28;13.30;;;7.70;;
78840;SDS011;68379;47.190;27.558;2023-04-01T14:44:21;9.80;;;7.10;;
78840;SDS011;68379;47.190;27.558;2023-04-01T14:47:17;10.30;;;7.80;;
78840;SDS011;68379;47.190;27.558;2023-04-01T14:50:05;11.10;;;7.30;;
78840;SDS011;68379;47.190;27.558;2023-04-01T14:52:43;9.50;;;7.00;;
78840;SDS011;68379;47.190;27.558;2023-04-01T14:55:24;14.30;;;7.70;;
78840;SDS011;68379;47.190;27.558;2023-04-01T14:58:12;12.00;;;8.40;;
78840;SDS011;68379;47.190;27.558;2023-04-01T15:00:50;12.00;;;7.50;;
78840;SDS011;68379;47.190;27.558;2023-04-01T15:03:32;11.60;;;8.10;;
78840;SDS011;68379;47.190;27.558;2023-04-01T15:06:16;11.40;;;7.40;;
78840;SDS011;68379;47.190;27.558;2023-04-01T15:09:07;11.30;;;7.90;;
78840;SDS011;68379;47.190;27.558;2023-04-01T15:11:53;10.10;;;8.30;;
78840;SDS011;68379;47.190;27.558;2023-04-01T15:14:41;12.20;;;8.30;;
78840;SDS011;68379;47.190;27.558;2023-04-01T15:17:25;11.50;;;8.80;;
78840;SDS011;68379;47.190;27.558;2023-04-01T15:20:29;12.70;;;9.20;;
78840;SDS011;68379;47.190;27.558;2023-04-01T15:23:19;12.70;;;8.20;;
78840;SDS011;68379;47.190;27.558;2023-04-01T15:29:01;12.30;;;8.20;;
78840;SDS011;68379;47.190;27.558;2023-04-01T15:31:57;12.00;;;7.90;;
78840;SDS011;68379;47.190;27.558;2023-04-01T15:37:14;12.40;;;8.40;;
78840;SDS011;68379;47.190;27.558;2023-04-01T15:39:57;13.90;;;7.80;;
78840;SDS011;68379;47.190;27.558;2023-04-01T15:42:39;14.60;;;9.80;;
78840;SDS011;68379;47.190;27.558;2023-04-01T15:45:30;14.10;;;9.20;;
78840;SDS011;68379;47.190;27.558;2023-04-01T15:48:20;12.50;;;9.00;;
78840;SDS011;68379;47.190;27.558;2023-04-01T15:51:14;12.30;;;8.30;;
78840;SDS011;68379;47.190;27.558;2023-04-01T15:54:05;15.60;;;9.20;;
78840;SDS011;68379;47.190;27.558;2023-04-01T15:56:56;13.80;;;9.60;;
78840;SDS011;68379;47.190;27.558;2023-04-01T15:59:57;16.00;;;9.10;;
78840;SDS011;68379;47.190;27.558;2023-04-01T16:02:43;16.20;;;9.60;;
78840;SDS011;68379;47.190;27.558;2023-04-01T16:05:25;15.00;;;9.80;;
78840;SDS011;68379;47.190;27.558;2023-04-01T16:08:11;15.90;;;10.00;;
78840;SDS011;68379;47.190;27.558;2023-04-01T16:11:01;13.80;;;9.10;;
78840;SDS011;68379;47.190;27.558;2023-04-01T16:13:49;15.10;;;9.80;;
78840;SDS011;68379;47.190;27.558;2023-04-01T16:16:38;16.90;;;10.90;;
78840;SDS011;68379;47.190;27.558;2023-04-01T16:19:34;14.30;;;10.00;;
78840;SDS011;68379;47.190;27.558;2023-04-01T16:22:16;12.70;;;9.70;;
78840;SDS011;68379;47.190;27.558;2023-04-01T16:24:53;12.50;;;9.80;;
78840;SDS011;68379;47.190;27.558;2023-04-01T16:27:33;14.30;;;9.30;;
78840;SDS011;68379;47.190;27.558;2023-04-01T16:30:22;15.50;;;10.30;;
78840;SDS011;68379;47.190;27.558;2023-04-01T16:33:03;13.40;;;9.70;;
78840;SDS011;68379;47.190;27.558;2023-04-01T16:35:43;17.30;;;10.20;;
78840;SDS011;68379;47.190;27.558;2023-04-01T16:38:24;13.70;;;10.10;;
78840;SDS011;68379;47.190;27.558;2023-04-01T16:41:13;14.10;;;10.30;;
78840;SDS011;68379;47.190;27.558;2023-04-01T16:43:48;14.60;;;10.50;;
78840;SDS011;68379;47.190;27.558;2023-04-01T16:46:30;13.50;;;9.40;;
78840;SDS011;68379;47.190;27.558;2023-04-01T16:49:23;12.90;;;9.70;;
78840;SDS011;68379;47.190;27.558;2023-04-01T16:52:11;11.70;;;8.70;;
78840;SDS011;68379;47.190;27.558;2023-04-01T16:54:47;14.10;;;9.40;;
78840;SDS011;68379;47.190;27.558;2023-04-01T16:57:30;14.30;;;9.20;;
78840;SDS011;68379;47.190;27.558;2023-04-01T17:00:17;15.30;;;9.90;;
78840;SDS011;68379;47.190;27.558;2023-04-01T17:03:02;15.30;;;10.30;;
78840;SDS011;68379;47.190;27.558;2023-04-01T17:05:49;14.10;;;9.90;;
78840;SDS011;68379;47.190;27.558;2023-04-01T17:08:36;15.40;;;9.70;;
78840;SDS011;68379;47.190;27.558;2023-04-01T17:11:20;15.10;;;9.70;;
78840;SDS011;68379;47.190;27.558;2023-04-01T17:14:00;17.20;;;9.20;;
78840;SDS011;68379;47.190;27.558;2023-04-01T17:20:00;16.50;;;11.00;;
78840;SDS011;68379;47.190;27.558;2023-04-01T17:22:42;14.80;;;11.50;;
78840;SDS011;68379;47.190;27.558;2023-04-01T17:25:24;16.50;;;11.80;;
78840;SDS011;68379;47.190;27.558;2023-04-01T17:28:20;18.20;;;12.70;;
78840;SDS011;68379;47.190;27.558;2023-04-01T17:31:06;17.30;;;11.40;;
78840;SDS011;68379;47.190;27.558;2023-04-01T17:34:00;14.70;;;10.50;;
78840;SDS011;68379;47.190;27.558;2023-04-01T17:36:48;22.10;;;11.80;;
78840;SDS011;68379;47.190;27.558;2023-04-01T17:39:56;13.50;;;10.90;;
78840;SDS011;68379;47.190;27.558;2023-04-01T17:42:46;17.60;;;11.10;;
78840;SDS011;68379;47.190;27.558;2023-04-01T17:45:27;16.50;;;11.90;;
78840;SDS011;68379;47.190;27.558;2023-04-01T17:48:14;15.40;;;10.70;;